Time;durP1;ratioP1;P1;durP2;ratioP2;P2;SDS_P1;SDS_P2;PMS_P1;PMS_P2;Temp;Humidity;BMP_temperature;BMP_pressure;BME280_temperature;BME280_humidity;BME280_pressure;Samples;Min_cycle;Max_cycle;Signal;HPM_P1;HPM_P2
2022/08/19 00:00:38;;;;;;;11.5;10.4;;;;;;;18.01;94.39648;94831.03;;;;
2022/08/19 00:01:39;;;;;;;11.5;10.4;;;;;;;18.01;94.39648;94831.03;;;;
2022/08/19 00:02:45;;;;;;;11.5;10.4;;;;;;;18.01;94.39648;94831.03;;;;
2022/08/19 00:03:46;;;;;;;11.5;10.4;;;;;;;18.01;94.39648;94831.03;;;;
2022/08/19 00:04:52;;;;;;;11.65;10.35;;;;;;;18.05;94.41699;94873.43;;;;
2022/08/19 00:05:52;;;;;;;11.65;10.35;;;;;;;18.05;94.41699;94873.43;;;;
2022/08/19 00:06:53;;;;;;;11.65;10.35;;;;;;;18.05;94.41699;94873.43;;;;
2022/08/19 00:07:54;;;;;;;11.65;10.35;;;;;;;18.05;94.41699;94873.43;;;;
2022/08/19 00:08:55;;;;;;;11.65;10.35;;;;;;;18.05;94.41699;94873.43;;;;
2022/08/19 00:09:57;;;;;;;11.65;10.35;;;;;;;18.05;94.41699;94873.43;;;;
2022/08/19 00:10:58;;;;;;;11.65;10.35;;;;;;;18.05;94.41699;94873.43;;;;
2022/08/19 00:11:58;;;;;;;11.65;10.35;;;;;;;18.05;94.41699;94873.43;;;;
2022/08/19 00:12:59;;;;;;;11.65;10.35;;;;;;;18.05;94.41699;94873.43;;;;
2022/08/19 00:14:00;;;;;;;11.65;10.35;;;;;;;18.05;94.41699;94873.43;;;;
2022/08/19 00:15:00;;;;;;;11.65;10.35;;;;;;;18.05;94.41699;94873.43;;;;
2022/08/19 00:16:01;;;;;;;12.45;11.2;;;;;;;18.18;94.71777;94863.12;;;;
2022/08/19 00:17:02;;;;;;;12.45;11.2;;;;;;;18.18;94.71777;94863.12;;;;
2022/08/19 00:18:03;;;;;;;12.45;11.2;;;;;;;18.18;94.71777;94863.12;;;;
2022/08/19 00:19:04;;;;;;;12.45;11.2;;;;;;;18.18;94.71777;94863.12;;;;
2022/08/19 00:20:05;;;;;;;12.45;11.2;;;;;;;18.18;94.71777;94863.12;;;;
2022/08/19 00:21:08;;;;;;;12.45;11.2;;;;;;;18.18;94.71777;94863.12;;;;
2022/08/19 00:22:08;;;;;;;12.45;11.2;;;;;;;18.18;94.71777;94863.12;;;;
2022/08/19 00:23:09;;;;;;;12.45;11.2;;;;;;;18.18;94.71777;94863.12;;;;
2022/08/19 00:24:09;;;;;;;12.45;11.2;;;;;;;18.18;94.71777;94863.12;;;;
2022/08/19 00:25:13;;;;;;;12.45;11.2;;;;;;;18.18;94.71777;94863.12;;;;
2022/08/19 00:26:14;;;;;;;14.95;11.45;;;;;;;18.23;94.60938;94814.01;;;;
2022/08/19 00:27:14;;;;;;;14.95;11.45;;;;;;;18.23;94.60938;94814.01;;;;
2022/08/19 00:28:15;;;;;;;14.95;11.45;;;;;;;18.23;94.60938;94814.01;;;;
2022/08/19 00:29:16;;;;;;;14.95;11.45;;;;;;;18.23;94.60938;94814.01;;;;
2022/08/19 00:30:19;;;;;;;14.95;11.45;;;;;;;18.23;94.60938;94814.01;;;;
2022/08/19 00:31:20;;;;;;;14.95;11.45;;;;;;;18.23;94.60938;94814.01;;;;
2022/08/19 00:32:21;;;;;;;14.95;11.45;;;;;;;18.23;94.60938;94814.01;;;;
2022/08/19 00:33:22;;;;;;;14.95;11.45;;;;;;;18.23;94.60938;94814.01;;;;
2022/08/19 00:34:22;;;;;;;14.95;11.45;;;;;;;18.23;94.60938;94814.01;;;;
2022/08/19 00:35:24;;;;;;;14.95;11.45;;;;;;;18.23;94.60938;94814.01;;;;
2022/08/19 00:36:25;;;;;;;14.95;11.45;;;;;;;18.23;94.60938;94814.01;;;;
2022/08/19 00:37:26;;;;;;;13.75;11.4;;;;;;;18.3;94.83008;94815.45;;;;
2022/08/19 00:38:27;;;;;;;13.75;11.4;;;;;;;18.3;94.83008;94815.45;;;;
2022/08/19 00:39:28;;;;;;;13.75;11.4;;;;;;;18.3;94.83008;94815.45;;;;
2022/08/19 00:40:30;;;;;;;13.75;11.4;;;;;;;18.3;94.83008;94815.45;;;;
2022/08/19 00:41:31;;;;;;;13.75;11.4;;;;;;;18.3;94.83008;94815.45;;;;
2022/08/19 00:42:32;;;;;;;13.75;11.4;;;;;;;18.3;94.83008;94815.45;;;;
2022/08/19 00:43:33;;;;;;;13.75;11.4;;;;;;;18.3;94.83008;94815.45;;;;
2022/08/19 00:44:34;;;;;;;13.75;11.4;;;;;;;18.3;94.83008;94815.45;;;;
2022/08/19 00:45:35;;;;;;;13.75;11.4;;;;;;;18.3;94.83008;94815.45;;;;
2022/08/19 00:46:36;;;;;;;13.75;11.4;;;;;;;18.3;94.83008;94815.45;;;;
2022/08/19 00:47:40;;;;;;;12.9;11.65;;;;;;;18.3;94.69727;94811.06;;;;
2022/08/19 00:48:40;;;;;;;12.9;11.65;;;;;;;18.3;94.69727;94811.06;;;;
2022/08/19 00:49:41;;;;;;;12.9;11.65;;;;;;;18.3;94.69727;94811.06;;;;
2022/08/19 00:50:47;;;;;;;12.9;11.65;;;;;;;18.3;94.69727;94811.06;;;;
2022/08/19 00:51:50;;;;;;;12.9;11.65;;;;;;;18.3;94.69727;94811.06;;;;
2022/08/19 00:52:54;;;;;;;12.9;11.65;;;;;;;18.3;94.69727;94811.06;;;;
2022/08/19 00:53:56;;;;;;;12.9;11.65;;;;;;;18.3;94.69727;94811.06;;;;
2022/08/19 00:54:58;;;;;;;12.9;11.65;;;;;;;18.3;94.69727;94811.06;;;;
2022/08/19 00:56:00;;;;;;;12.9;11.65;;;;;;;18.3;94.69727;94811.06;;;;
2022/08/19 00:57:02;;;;;;;12.9;11.65;;;;;;;18.3;94.69727;94811.06;;;;
2022/08/19 00:58:06;;;;;;;16.5;13.55;;;;;;;18.34;94.96875;94783.48;;;;
2022/08/19 00:59:12;;;;;;;16.5;13.55;;;;;;;18.34;94.96875;94783.48;;;;
2022/08/19 01:00:13;;;;;;;16.5;13.55;;;;;;;18.34;94.96875;94783.48;;;;
2022/08/19 01:01:18;;;;;;;16.5;13.55;;;;;;;18.34;94.96875;94783.48;;;;
2022/08/19 01:02:18;;;;;;;16.5;13.55;;;;;;;18.34;94.96875;94783.48;;;;
2022/08/19 01:03:19;;;;;;;16.5;13.55;;;;;;;18.34;94.96875;94783.48;;;;
2022/08/19 01:04:21;;;;;;;16.5;13.55;;;;;;;18.34;94.96875;94783.48;;;;
2022/08/19 01:05:22;;;;;;;16.5;13.55;;;;;;;18.34;94.96875;94783.48;;;;
2022/08/19 01:06:25;;;;;;;16.5;13.55;;;;;;;18.34;94.96875;94783.48;;;;
2022/08/19 01:07:26;;;;;;;16.5;13.55;;;;;;;18.34;94.96875;94783.48;;;;
2022/08/19 01:08:27;;;;;;;16.5;13.55;;;;;;;18.34;94.96875;94783.48;;;;
2022/08/19 01:09:28;;;;;;;14.95;13.45;;;;;;;18.33;94.90137;94803.83;;;;
2022/08/19 01:10:29;;;;;;;14.95;13.45;;;;;;;18.33;94.90137;94803.83;;;;
2022/08/19 01:11:33;;;;;;;14.95;13.45;;;;;;;18.33;94.90137;94803.83;;;;
2022/08/19 01:12:38;;;;;;;14.95;13.45;;;;;;;18.33;94.90137;94803.83;;;;
2022/08/19 01:13:39;;;;;;;14.95;13.45;;;;;;;18.33;94.90137;94803.83;;;;
2022/08/19 01:14:40;;;;;;;14.95;13.45;;;;;;;18.33;94.90137;94803.83;;;;
2022/08/19 01:15:41;;;;;;;14.95;13.45;;;;;;;18.33;94.90137;94803.83;;;;
2022/08/19 01:16:54;;;;;;;14.95;13.45;;;;;;;18.33;94.90137;94803.83;;;;
2022/08/19 01:17:55;;;;;;;14.95;13.45;;;;;;;18.33;94.90137;94803.83;;;;
2022/08/19 01:18:59;;;;;;;14.95;13.45;;;;;;;18.33;94.90137;94803.83;;;;
2022/08/19 01:20:01;;;;;;;16.05;14.4;;;;;;;18.37;95.11621;94791.49;;;;
2022/08/19 01:21:03;;;;;;;16.05;14.4;;;;;;;18.37;95.11621;94791.49;;;;
2022/08/19 01:22:10;;;;;;;16.05;14.4;;;;;;;18.37;95.11621;94791.49;;;;
2022/08/19 01:23:19;;;;;;;16.05;14.4;;;;;;;18.37;95.11621;94791.49;;;;
2022/08/19 01:24:20;;;;;;;16.05;14.4;;;;;;;18.37;95.11621;94791.49;;;;
2022/08/19 01:25:21;;;;;;;16.05;14.4;;;;;;;18.37;95.11621;94791.49;;;;
2022/08/19 01:26:26;;;;;;;16.05;14.4;;;;;;;18.37;95.11621;94791.49;;;;
2022/08/19 01:27:27;;;;;;;16.05;14.4;;;;;;;18.37;95.11621;94791.49;;;;
2022/08/19 01:28:38;;;;;;;16.05;14.4;;;;;;;18.37;95.11621;94791.49;;;;
2022/08/19 01:29:40;;;;;;;16.05;14.4;;;;;;;18.37;95.11621;94791.49;;;;
2022/08/19 01:30:42;;;;;;;15.4;13.8;;;;;;;18.36;95.04883;94811.72;;;;
2022/08/19 01:31:44;;;;;;;15.4;13.8;;;;;;;18.36;95.04883;94811.72;;;;
2022/08/19 01:32:45;;;;;;;15.4;13.8;;;;;;;18.36;95.04883;94811.72;;;;
2022/08/19 01:33:46;;;;;;;15.4;13.8;;;;;;;18.36;95.04883;94811.72;;;;
2022/08/19 01:34:47;;;;;;;15.4;13.8;;;;;;;18.36;95.04883;94811.72;;;;
2022/08/19 01:35:51;;;;;;;15.4;13.8;;;;;;;18.36;95.04883;94811.72;;;;
2022/08/19 01:36:51;;;;;;;15.4;13.8;;;;;;;18.36;95.04883;94811.72;;;;
2022/08/19 01:37:52;;;;;;;15.4;13.8;;;;;;;18.36;95.04883;94811.72;;;;
2022/08/19 01:38:55;;;;;;;15.4;13.8;;;;;;;18.36;95.04883;94811.72;;;;
2022/08/19 01:39:57;;;;;;;15.4;13.8;;;;;;;18.36;95.04883;94811.72;;;;
2022/08/19 01:40:58;;;;;;;16.05;14.2;;;;;;;18.4;95.26563;94825.24;;;;
2022/08/19 01:42:02;;;;;;;16.05;14.2;;;;;;;18.4;95.26563;94825.24;;;;
2022/08/19 01:43:04;;;;;;;16.05;14.2;;;;;;;18.4;95.26563;94825.24;;;;
2022/08/19 01:44:05;;;;;;;16.05;14.2;;;;;;;18.4;95.26563;94825.24;;;;
2022/08/19 01:45:09;;;;;;;16.05;14.2;;;;;;;18.4;95.26563;94825.24;;;;
2022/08/19 01:46:10;;;;;;;16.05;14.2;;;;;;;18.4;95.26563;94825.24;;;;
2022/08/19 01:47:11;;;;;;;16.05;14.2;;;;;;;18.4;95.26563;94825.24;;;;
2022/08/19 01:48:11;;;;;;;16.05;14.2;;;;;;;18.4;95.26563;94825.24;;;;
2022/08/19 01:49:13;;;;;;;16.05;14.2;;;;;;;18.4;95.26563;94825.24;;;;
2022/08/19 01:50:15;;;;;;;16.05;14.2;;;;;;;18.4;95.26563;94825.24;;;;
2022/08/19 01:51:16;;;;;;;15;13.5;;;;;;;18.35;95.125;94849.31;;;;
2022/08/19 01:52:17;;;;;;;15;13.5;;;;;;;18.35;95.125;94849.31;;;;
2022/08/19 01:53:17;;;;;;;15;13.5;;;;;;;18.35;95.125;94849.31;;;;
2022/08/19 01:54:18;;;;;;;15;13.5;;;;;;;18.35;95.125;94849.31;;;;
2022/08/19 01:55:23;;;;;;;15;13.5;;;;;;;18.35;95.125;94849.31;;;;
2022/08/19 01:56:24;;;;;;;15;13.5;;;;;;;18.35;95.125;94849.31;;;;
2022/08/19 01:57:25;;;;;;;15;13.5;;;;;;;18.35;95.125;94849.31;;;;
2022/08/19 01:58:26;;;;;;;15;13.5;;;;;;;18.35;95.125;94849.31;;;;
2022/08/19 01:59:31;;;;;;;15;13.5;;;;;;;18.35;95.125;94849.31;;;;
2022/08/19 02:00:33;;;;;;;15;13.5;;;;;;;18.35;95.125;94849.31;;;;
2022/08/19 02:01:34;;;;;;;15;13.5;;;;;;;18.35;95.125;94849.31;;;;
2022/08/19 02:02:35;;;;;;;14.3;12.7;;;;;;;18.35;95.29688;94833.81;;;;
2022/08/19 02:03:35;;;;;;;14.3;12.7;;;;;;;18.35;95.29688;94833.81;;;;
2022/08/19 02:04:37;;;;;;;14.3;12.7;;;;;;;18.35;95.29688;94833.81;;;;
2022/08/19 02:05:38;;;;;;;14.3;12.7;;;;;;;18.35;95.29688;94833.81;;;;
2022/08/19 02:06:40;;;;;;;14.3;12.7;;;;;;;18.35;95.29688;94833.81;;;;
2022/08/19 02:07:41;;;;;;;14.3;12.7;;;;;;;18.35;95.29688;94833.81;;;;
2022/08/19 02:08:41;;;;;;;14.3;12.7;;;;;;;18.35;95.29688;94833.81;;;;
2022/08/19 02:09:43;;;;;;;14.3;12.7;;;;;;;18.35;95.29688;94833.81;;;;
2022/08/19 02:10:43;;;;;;;14.3;12.7;;;;;;;18.35;95.29688;94833.81;;;;
2022/08/19 02:11:44;;;;;;;14.3;12.7;;;;;;;18.35;95.29688;94833.81;;;;
2022/08/19 02:12:44;;;;;;;14.25;12.75;;;;;;;18.27;95.1709;94844.65;;;;
2022/08/19 02:13:45;;;;;;;14.25;12.75;;;;;;;18.27;95.1709;94844.65;;;;
2022/08/19 02:14:46;;;;;;;14.25;12.75;;;;;;;18.27;95.1709;94844.65;;;;
2022/08/19 02:15:47;;;;;;;14.25;12.75;;;;;;;18.27;95.1709;94844.65;;;;
2022/08/19 02:16:48;;;;;;;14.25;12.75;;;;;;;18.27;95.1709;94844.65;;;;
2022/08/19 02:17:48;;;;;;;14.25;12.75;;;;;;;18.27;95.1709;94844.65;;;;
2022/08/19 02:18:49;;;;;;;14.25;12.75;;;;;;;18.27;95.1709;94844.65;;;;
2022/08/19 02:19:50;;;;;;;14.25;12.75;;;;;;;18.27;95.1709;94844.65;;;;
2022/08/19 02:20:51;;;;;;;14.25;12.75;;;;;;;18.27;95.1709;94844.65;;;;
2022/08/19 02:21:52;;;;;;;14.25;12.75;;;;;;;18.27;95.1709;94844.65;;;;
2022/08/19 02:22:52;;;;;;;14.25;12.75;;;;;;;18.27;95.1709;94844.65;;;;
2022/08/19 02:23:53;;;;;;;13;11.7;;;;;;;18.26;95.3877;94856.29;;;;
2022/08/19 02:24:55;;;;;;;13;11.7;;;;;;;18.26;95.3877;94856.29;;;;
2022/08/19 02:25:55;;;;;;;13;11.7;;;;;;;18.26;95.3877;94856.29;;;;
2022/08/19 02:26:58;;;;;;;13;11.7;;;;;;;18.26;95.3877;94856.29;;;;
2022/08/19 02:27:59;;;;;;;13;11.7;;;;;;;18.26;95.3877;94856.29;;;;
2022/08/19 02:29:00;;;;;;;13;11.7;;;;;;;18.26;95.3877;94856.29;;;;
2022/08/19 02:30:00;;;;;;;13;11.7;;;;;;;18.26;95.3877;94856.29;;;;
2022/08/19 02:31:04;;;;;;;13;11.7;;;;;;;18.26;95.3877;94856.29;;;;
2022/08/19 02:32:09;;;;;;;13;11.7;;;;;;;18.26;95.3877;94856.29;;;;
2022/08/19 02:33:09;;;;;;;13;11.7;;;;;;;18.26;95.3877;94856.29;;;;
2022/08/19 02:34:10;;;;;;;12.2;11.1;;;;;;;18.21;95.40918;94861.64;;;;
2022/08/19 02:35:10;;;;;;;12.2;11.1;;;;;;;18.21;95.40918;94861.64;;;;
2022/08/19 02:36:13;;;;;;;12.2;11.1;;;;;;;18.21;95.40918;94861.64;;;;
2022/08/19 02:38:25;;;;;;;12.2;11.1;;;;;;;18.21;95.40918;94861.64;;;;
2022/08/19 02:39:26;;;;;;;12.2;11.1;;;;;;;18.21;95.40918;94861.64;;;;
2022/08/19 02:40:26;;;;;;;12.2;11.1;;;;;;;18.21;95.40918;94861.64;;;;
2022/08/19 02:41:27;;;;;;;12.2;11.1;;;;;;;18.21;95.40918;94861.64;;;;
2022/08/19 02:42:31;;;;;;;12.2;11.1;;;;;;;18.21;95.40918;94861.64;;;;
2022/08/19 02:43:31;;;;;;;12.2;11.1;;;;;;;18.21;95.40918;94861.64;;;;
2022/08/19 02:44:33;;;;;;;12.2;11.1;;;;;;;18.21;95.40918;94861.64;;;;
2022/08/19 02:45:34;;;;;;;11.45;10.25;;;;;;;18.19;95.73145;94818.82;;;;
2022/08/19 02:46:36;;;;;;;11.45;10.25;;;;;;;18.19;95.73145;94818.82;;;;
2022/08/19 02:47:36;;;;;;;11.45;10.25;;;;;;;18.19;95.73145;94818.82;;;;
2022/08/19 02:48:37;;;;;;;11.45;10.25;;;;;;;18.19;95.73145;94818.82;;;;
2022/08/19 02:49:37;;;;;;;11.45;10.25;;;;;;;18.19;95.73145;94818.82;;;;
2022/08/19 02:50:38;;;;;;;11.45;10.25;;;;;;;18.19;95.73145;94818.82;;;;
2022/08/19 02:51:39;;;;;;;11.45;10.25;;;;;;;18.19;95.73145;94818.82;;;;
2022/08/19 02:52:42;;;;;;;11.45;10.25;;;;;;;18.19;95.73145;94818.82;;;;
2022/08/19 02:53:44;;;;;;;11.45;10.25;;;;;;;18.19;95.73145;94818.82;;;;
2022/08/19 02:54:45;;;;;;;11.45;10.25;;;;;;;18.19;95.73145;94818.82;;;;
2022/08/19 02:55:45;;;;;;;12.3;10.85;;;;;;;18.05;95.64648;94783.81;;;;
2022/08/19 02:56:47;;;;;;;12.3;10.85;;;;;;;18.05;95.64648;94783.81;;;;
2022/08/19 02:57:47;;;;;;;12.3;10.85;;;;;;;18.05;95.64648;94783.81;;;;
2022/08/19 02:58:48;;;;;;;12.3;10.85;;;;;;;18.05;95.64648;94783.81;;;;
2022/08/19 02:59:49;;;;;;;12.3;10.85;;;;;;;18.05;95.64648;94783.81;;;;
2022/08/19 03:00:50;;;;;;;12.3;10.85;;;;;;;18.05;95.64648;94783.81;;;;
2022/08/19 03:01:54;;;;;;;12.3;10.85;;;;;;;18.05;95.64648;94783.81;;;;
2022/08/19 03:02:54;;;;;;;12.3;10.85;;;;;;;18.05;95.64648;94783.81;;;;
2022/08/19 03:03:55;;;;;;;12.3;10.85;;;;;;;18.05;95.64648;94783.81;;;;
2022/08/19 03:04:57;;;;;;;12.3;10.85;;;;;;;18.05;95.64648;94783.81;;;;
2022/08/19 03:05:58;;;;;;;11.65;10.45;;;;;;;17.94;95.90723;94787.58;;;;
2022/08/19 03:07:09;;;;;;;11.65;10.45;;;;;;;17.94;95.90723;94787.58;;;;
2022/08/19 03:08:13;;;;;;;11.65;10.45;;;;;;;17.94;95.90723;94787.58;;;;
2022/08/19 03:09:14;;;;;;;11.65;10.45;;;;;;;17.94;95.90723;94787.58;;;;
2022/08/19 03:10:15;;;;;;;11.65;10.45;;;;;;;17.94;95.90723;94787.58;;;;
2022/08/19 03:11:16;;;;;;;11.65;10.45;;;;;;;17.94;95.90723;94787.58;;;;
2022/08/19 03:12:19;;;;;;;11.65;10.45;;;;;;;17.94;95.90723;94787.58;;;;
2022/08/19 03:13:20;;;;;;;11.65;10.45;;;;;;;17.94;95.90723;94787.58;;;;
2022/08/19 03:14:21;;;;;;;11.65;10.45;;;;;;;17.94;95.90723;94787.58;;;;
2022/08/19 03:15:22;;;;;;;11.65;10.45;;;;;;;17.94;95.90723;94787.58;;;;
2022/08/19 03:16:22;;;;;;;11.65;10.45;;;;;;;17.94;95.90723;94787.58;;;;
2022/08/19 03:17:25;;;;;;;11.5;10.35;;;;;;;17.75;95.9082;94803.5;;;;
2022/08/19 03:18:26;;;;;;;11.5;10.35;;;;;;;17.75;95.9082;94803.5;;;;
2022/08/19 03:19:27;;;;;;;11.5;10.35;;;;;;;17.75;95.9082;94803.5;;;;
2022/08/19 03:20:27;;;;;;;11.5;10.35;;;;;;;17.75;95.9082;94803.5;;;;
2022/08/19 03:21:28;;;;;;;11.5;10.35;;;;;;;17.75;95.9082;94803.5;;;;
2022/08/19 03:22:31;;;;;;;11.5;10.35;;;;;;;17.75;95.9082;94803.5;;;;
2022/08/19 03:23:32;;;;;;;11.5;10.35;;;;;;;17.75;95.9082;94803.5;;;;
2022/08/19 03:24:32;;;;;;;11.5;10.35;;;;;;;17.75;95.9082;94803.5;;;;
2022/08/19 03:25:33;;;;;;;11.5;10.35;;;;;;;17.75;95.9082;94803.5;;;;
2022/08/19 03:26:37;;;;;;;11.5;10.35;;;;;;;17.75;95.9082;94803.5;;;;
2022/08/19 03:27:40;;;;;;;12;10.85;;;;;;;17.75;96.36523;94830.62;;;;
2022/08/19 03:28:41;;;;;;;12;10.85;;;;;;;17.75;96.36523;94830.62;;;;
2022/08/19 03:29:42;;;;;;;12;10.85;;;;;;;17.75;96.36523;94830.62;;;;
2022/08/19 03:30:43;;;;;;;12;10.85;;;;;;;17.75;96.36523;94830.62;;;;
2022/08/19 03:31:56;;;;;;;12;10.85;;;;;;;17.75;96.36523;94830.62;;;;
2022/08/19 03:32:57;;;;;;;12;10.85;;;;;;;17.75;96.36523;94830.62;;;;
2022/08/19 03:33:57;;;;;;;12;10.85;;;;;;;17.75;96.36523;94830.62;;;;
2022/08/19 03:34:58;;;;;;;12;10.85;;;;;;;17.75;96.36523;94830.62;;;;
2022/08/19 03:35:58;;;;;;;12;10.85;;;;;;;17.75;96.36523;94830.62;;;;
2022/08/19 03:37:04;;;;;;;12;10.85;;;;;;;17.75;96.36523;94830.62;;;;
2022/08/19 03:38:08;;;;;;;13.25;11.95;;;;;;;17.8;96.49414;94823.53;;;;
2022/08/19 03:39:08;;;;;;;13.25;11.95;;;;;;;17.8;96.49414;94823.53;;;;
2022/08/19 03:40:10;;;;;;;13.25;11.95;;;;;;;17.8;96.49414;94823.53;;;;
2022/08/19 03:41:10;;;;;;;13.25;11.95;;;;;;;17.8;96.49414;94823.53;;;;
2022/08/19 03:42:14;;;;;;;13.25;11.95;;;;;;;17.8;96.49414;94823.53;;;;
2022/08/19 03:43:18;;;;;;;13.25;11.95;;;;;;;17.8;96.49414;94823.53;;;;
2022/08/19 03:44:20;;;;;;;13.25;11.95;;;;;;;17.8;96.49414;94823.53;;;;
2022/08/19 03:45:23;;;;;;;13.25;11.95;;;;;;;17.8;96.49414;94823.53;;;;
2022/08/19 03:46:24;;;;;;;13.25;11.95;;;;;;;17.8;96.49414;94823.53;;;;
2022/08/19 03:47:27;;;;;;;13.25;11.95;;;;;;;17.8;96.49414;94823.53;;;;
2022/08/19 03:48:27;;;;;;;13.25;11.95;;;;;;;17.8;96.49414;94823.53;;;;
2022/08/19 03:49:28;;;;;;;13.25;11.85;;;;;;;17.85;96.74609;94811.91;;;;
2022/08/19 03:50:31;;;;;;;13.25;11.85;;;;;;;17.85;96.74609;94811.91;;;;
2022/08/19 03:51:31;;;;;;;13.25;11.85;;;;;;;17.85;96.74609;94811.91;;;;
2022/08/19 03:52:34;;;;;;;13.25;11.85;;;;;;;17.85;96.74609;94811.91;;;;
2022/08/19 03:53:34;;;;;;;13.25;11.85;;;;;;;17.85;96.74609;94811.91;;;;
2022/08/19 03:54:35;;;;;;;13.25;11.85;;;;;;;17.85;96.74609;94811.91;;;;
2022/08/19 03:55:36;;;;;;;13.25;11.85;;;;;;;17.85;96.74609;94811.91;;;;
2022/08/19 03:56:40;;;;;;;13.25;11.85;;;;;;;17.85;96.74609;94811.91;;;;
2022/08/19 03:57:42;;;;;;;13.25;11.85;;;;;;;17.85;96.74609;94811.91;;;;
2022/08/19 03:58:43;;;;;;;13.25;11.85;;;;;;;17.85;96.74609;94811.91;;;;
2022/08/19 03:59:45;;;;;;;12.2;11;;;;;;;17.85;96.71289;94816.33;;;;
2022/08/19 04:00:45;;;;;;;12.2;11;;;;;;;17.85;96.71289;94816.33;;;;
2022/08/19 04:01:46;;;;;;;12.2;11;;;;;;;17.85;96.71289;94816.33;;;;
2022/08/19 04:02:46;;;;;;;12.2;11;;;;;;;17.85;96.71289;94816.33;;;;
2022/08/19 04:03:47;;;;;;;12.2;11;;;;;;;17.85;96.71289;94816.33;;;;
2022/08/19 04:04:48;;;;;;;12.2;11;;;;;;;17.85;96.71289;94816.33;;;;
2022/08/19 04:05:53;;;;;;;12.2;11;;;;;;;17.85;96.71289;94816.33;;;;
2022/08/19 04:06:54;;;;;;;12.2;11;;;;;;;17.85;96.71289;94816.33;;;;
2022/08/19 04:07:58;;;;;;;12.2;11;;;;;;;17.85;96.71289;94816.33;;;;
2022/08/19 04:08:59;;;;;;;12.2;11;;;;;;;17.85;96.71289;94816.33;;;;
2022/08/19 04:10:02;;;;;;;13.3;11.7;;;;;;;17.95;96.9834;94805.74;;;;
2022/08/19 04:11:04;;;;;;;13.3;11.7;;;;;;;17.95;96.9834;94805.74;;;;
2022/08/19 04:12:07;;;;;;;13.3;11.7;;;;;;;17.95;96.9834;94805.74;;;;
2022/08/19 04:13:08;;;;;;;13.3;11.7;;;;;;;17.95;96.9834;94805.74;;;;
2022/08/19 04:14:09;;;;;;;13.3;11.7;;;;;;;17.95;96.9834;94805.74;;;;
2022/08/19 04:15:12;;;;;;;13.3;11.7;;;;;;;17.95;96.9834;94805.74;;;;
2022/08/19 04:16:12;;;;;;;13.3;11.7;;;;;;;17.95;96.9834;94805.74;;;;
2022/08/19 04:17:13;;;;;;;13.3;11.7;;;;;;;17.95;96.9834;94805.74;;;;
2022/08/19 04:18:14;;;;;;;13.3;11.7;;;;;;;17.95;96.9834;94805.74;;;;
2022/08/19 04:19:14;;;;;;;13.3;11.7;;;;;;;17.95;96.9834;94805.74;;;;
2022/08/19 04:20:16;;;;;;;13.3;11.7;;;;;;;17.95;96.9834;94805.74;;;;
2022/08/19 04:21:17;;;;;;;13.7;12.05;;;;;;;17.96;96.91113;94813.5;;;;
2022/08/19 04:22:20;;;;;;;13.7;12.05;;;;;;;17.96;96.91113;94813.5;;;;
2022/08/19 04:23:20;;;;;;;13.7;12.05;;;;;;;17.96;96.91113;94813.5;;;;
2022/08/19 04:24:21;;;;;;;13.7;12.05;;;;;;;17.96;96.91113;94813.5;;;;
2022/08/19 04:25:22;;;;;;;13.7;12.05;;;;;;;17.96;96.91113;94813.5;;;;
2022/08/19 04:26:22;;;;;;;13.7;12.05;;;;;;;17.96;96.91113;94813.5;;;;
2022/08/19 04:27:26;;;;;;;13.7;12.05;;;;;;;17.96;96.91113;94813.5;;;;
2022/08/19 04:28:26;;;;;;;13.7;12.05;;;;;;;17.96;96.91113;94813.5;;;;
2022/08/19 04:29:27;;;;;;;13.7;12.05;;;;;;;17.96;96.91113;94813.5;;;;
2022/08/19 04:30:28;;;;;;;13.7;12.05;;;;;;;17.96;96.91113;94813.5;;;;
2022/08/19 04:31:29;;;;;;;12.85;11.65;;;;;;;18.08;97.21875;94827.94;;;;
2022/08/19 04:32:31;;;;;;;12.85;11.65;;;;;;;18.08;97.21875;94827.94;;;;
2022/08/19 04:33:32;;;;;;;12.85;11.65;;;;;;;18.08;97.21875;94827.94;;;;
2022/08/19 04:34:32;;;;;;;12.85;11.65;;;;;;;18.08;97.21875;94827.94;;;;
2022/08/19 04:35:33;;;;;;;12.85;11.65;;;;;;;18.08;97.21875;94827.94;;;;
2022/08/19 04:36:36;;;;;;;12.85;11.65;;;;;;;18.08;97.21875;94827.94;;;;
2022/08/19 04:37:38;;;;;;;12.85;11.65;;;;;;;18.08;97.21875;94827.94;;;;
2022/08/19 04:38:38;;;;;;;12.85;11.65;;;;;;;18.08;97.21875;94827.94;;;;
2022/08/19 04:44:51;;;;;;;12.95;11.75;;;;;;;18.13;97.1416;94851.48;;;;
2022/08/19 04:45:51;;;;;;;12.95;11.75;;;;;;;18.13;97.1416;94851.48;;;;
2022/08/19 04:46:52;;;;;;;12.95;11.75;;;;;;;18.13;97.1416;94851.48;;;;
2022/08/19 04:47:53;;;;;;;12.95;11.75;;;;;;;18.13;97.1416;94851.48;;;;
2022/08/19 04:48:56;;;;;;;12.95;11.75;;;;;;;18.13;97.1416;94851.48;;;;
2022/08/19 04:49:57;;;;;;;12.95;11.75;;;;;;;18.13;97.1416;94851.48;;;;
2022/08/19 04:50:58;;;;;;;12.95;11.75;;;;;;;18.13;97.1416;94851.48;;;;
2022/08/19 04:51:59;;;;;;;12.95;11.75;;;;;;;18.13;97.1416;94851.48;;;;
2022/08/19 04:52:59;;;;;;;11.8;10.65;;;;;;;18.23;97.32715;94857.36;;;;
2022/08/19 04:53:59;;;;;;;11.8;10.65;;;;;;;18.23;97.32715;94857.36;;;;
2022/08/19 04:55:01;;;;;;;11.8;10.65;;;;;;;18.23;97.32715;94857.36;;;;
2022/08/19 04:56:03;;;;;;;11.8;10.65;;;;;;;18.23;97.32715;94857.36;;;;
2022/08/19 04:57:08;;;;;;;11.8;10.65;;;;;;;18.23;97.32715;94857.36;;;;
2022/08/19 04:58:09;;;;;;;11.8;10.65;;;;;;;18.23;97.32715;94857.36;;;;
2022/08/19 04:59:10;;;;;;;11.8;10.65;;;;;;;18.23;97.32715;94857.36;;;;
2022/08/19 05:00:11;;;;;;;11.8;10.65;;;;;;;18.23;97.32715;94857.36;;;;
2022/08/19 05:01:12;;;;;;;11.8;10.65;;;;;;;18.23;97.32715;94857.36;;;;
2022/08/19 05:02:16;;;;;;;11.8;10.65;;;;;;;18.23;97.32715;94857.36;;;;
2022/08/19 05:03:17;;;;;;;11.8;10.65;;;;;;;18.23;97.32715;94857.36;;;;
2022/08/19 05:04:18;;;;;;;11.45;10.25;;;;;;;18.26;97.19238;94877.82;;;;
2022/08/19 05:05:20;;;;;;;11.45;10.25;;;;;;;18.26;97.19238;94877.82;;;;
2022/08/19 05:06:21;;;;;;;11.45;10.25;;;;;;;18.26;97.19238;94877.82;;;;
2022/08/19 05:07:22;;;;;;;11.45;10.25;;;;;;;18.26;97.19238;94877.82;;;;
2022/08/19 05:08:23;;;;;;;11.45;10.25;;;;;;;18.26;97.19238;94877.82;;;;
2022/08/19 05:09:23;;;;;;;11.45;10.25;;;;;;;18.26;97.19238;94877.82;;;;
2022/08/19 05:10:24;;;;;;;11.45;10.25;;;;;;;18.26;97.19238;94877.82;;;;
2022/08/19 05:11:25;;;;;;;11.45;10.25;;;;;;;18.26;97.19238;94877.82;;;;
2022/08/19 05:12:28;;;;;;;11.45;10.25;;;;;;;18.26;97.19238;94877.82;;;;
2022/08/19 05:13:29;;;;;;;11.45;10.25;;;;;;;18.26;97.19238;94877.82;;;;
2022/08/19 05:14:29;;;;;;;11.2;10.1;;;;;;;18.33;97.30664;94880.51;;;;
2022/08/19 05:15:30;;;;;;;11.2;10.1;;;;;;;18.33;97.30664;94880.51;;;;
2022/08/19 05:16:31;;;;;;;11.2;10.1;;;;;;;18.33;97.30664;94880.51;;;;
2022/08/19 05:17:31;;;;;;;11.2;10.1;;;;;;;18.33;97.30664;94880.51;;;;
2022/08/19 05:23:47;;;;;;;11.2;10.1;;;;;;;18.33;97.30664;94880.51;;;;
2022/08/19 05:24:47;;;;;;;11.75;10.55;;;;;;;18.31;97.12793;94884.39;;;;
2022/08/19 05:25:48;;;;;;;11.75;10.55;;;;;;;18.31;97.12793;94884.39;;;;
2022/08/19 05:26:49;;;;;;;11.75;10.55;;;;;;;18.31;97.12793;94884.39;;;;
2022/08/19 05:27:51;;;;;;;11.75;10.55;;;;;;;18.31;97.12793;94884.39;;;;
2022/08/19 05:28:52;;;;;;;11.75;10.55;;;;;;;18.31;97.12793;94884.39;;;;
2022/08/19 05:29:52;;;;;;;11.75;10.55;;;;;;;18.31;97.12793;94884.39;;;;
2022/08/19 05:30:55;;;;;;;11.75;10.55;;;;;;;18.31;97.12793;94884.39;;;;
2022/08/19 05:31:55;;;;;;;11.75;10.55;;;;;;;18.31;97.12793;94884.39;;;;
2022/08/19 05:32:56;;;;;;;11.75;10.55;;;;;;;18.31;97.12793;94884.39;;;;
2022/08/19 05:33:58;;;;;;;11.75;10.55;;;;;;;18.31;97.12793;94884.39;;;;
2022/08/19 05:34:58;;;;;;;11.75;10.55;;;;;;;18.31;97.12793;94884.39;;;;
2022/08/19 05:35:59;;;;;;;11.75;10.55;;;;;;;18.31;97.12793;94884.39;;;;
2022/08/19 05:37:02;;;;;;;11.75;10.55;;;;;;;18.31;97.12793;94884.39;;;;
2022/08/19 05:38:04;;;;;;;11.75;10.55;;;;;;;18.31;97.12793;94884.39;;;;
2022/08/19 05:39:04;;;;;;;11.75;10.55;;;;;;;18.31;97.12793;94884.39;;;;
2022/08/19 05:40:07;;;;;;;11.75;10.55;;;;;;;18.31;97.12793;94884.39;;;;
2022/08/19 05:41:09;;;;;;;11.75;10.55;;;;;;;18.31;97.12793;94884.39;;;;
2022/08/19 05:42:11;;;;;;;11.75;10.55;;;;;;;18.31;97.12793;94884.39;;;;
2022/08/19 05:43:15;;;;;;;11.75;10.55;;;;;;;18.31;97.12793;94884.39;;;;
2022/08/19 05:44:16;;;;;;;11.75;10.55;;;;;;;18.31;97.12793;94884.39;;;;
2022/08/19 05:45:17;;;;;;;11.75;10.55;;;;;;;18.31;97.12793;94884.39;;;;
2022/08/19 05:46:18;;;;;;;12.45;11.2;;;;;;;18.53;97.27246;94846.24;;;;
2022/08/19 05:47:19;;;;;;;12.45;11.2;;;;;;;18.53;97.27246;94846.24;;;;
2022/08/19 05:48:20;;;;;;;12.45;11.2;;;;;;;18.53;97.27246;94846.24;;;;
2022/08/19 05:49:21;;;;;;;12.45;11.2;;;;;;;18.53;97.27246;94846.24;;;;
2022/08/19 05:50:22;;;;;;;12.45;11.2;;;;;;;18.53;97.27246;94846.24;;;;
2022/08/19 05:51:23;;;;;;;12.45;11.2;;;;;;;18.53;97.27246;94846.24;;;;
2022/08/19 05:52:25;;;;;;;12.45;11.2;;;;;;;18.53;97.27246;94846.24;;;;
2022/08/19 05:53:26;;;;;;;12.45;11.2;;;;;;;18.53;97.27246;94846.24;;;;
2022/08/19 05:54:26;;;;;;;12.45;11.2;;;;;;;18.53;97.27246;94846.24;;;;
2022/08/19 05:55:27;;;;;;;12.45;11.2;;;;;;;18.53;97.27246;94846.24;;;;
2022/08/19 05:56:27;;;;;;;12.45;11.2;;;;;;;18.53;97.27246;94846.24;;;;
2022/08/19 05:57:28;;;;;;;12.45;11.2;;;;;;;18.73;97.39258;94848.85;;;;